Latest Weather Observations for Melbourne (Olympic Park)

IDV60901

Issued at 4:21 pm EDT Sunday 26 March 2017 (issued every 10 minutes, with the page automatically refreshed every 10 minutes)

About weather observations | Map of Melbourne area stations | Latest observations for Melbourne area | Other Formats
Station Details ID: 086338 Name: MELBOURNE (OLYMPIC PARK) Lat: -37.83 Lon: 144.98 Height: 7.53 m
Data from the previous 72 hours. | See also: Recent months at Melbourne (Olympic Park)
Date/Time
EDT
Temp
°C
App
Temp
°C
Dew
Point
°C
Rel
Hum
%
Delta-T
°C
Wind Press
QNH
hPa
Press
MSL
hPa
Rain since
9am
mm
Dir  Spd
km/h
Gust
km/h
Spd
kts
Gust
kts
26/04:00pm 24.7 25.3 17.7 65 4.4 SSW 11 17 6 9 1011.5 1011.5 0.0
26/03:30pm 24.5 25.6 17.0 63 4.6 SSW 7 15 4 8 1012.0 1012.0 0.0
26/03:00pm 23.8 24.1 17.1 66 4.1 SSW 11 17 6 9 1012.4 1012.4 0.0
26/02:30pm 23.9 24.4 17.4 67 4.0 SSW 11 17 6 9 1012.7 1012.7 0.0
26/02:00pm 23.1 23.2 16.4 66 4.1 SW 11 17 6 9 1013.3 1013.3 0.0
26/01:30pm 23.8 24.4 16.8 65 4.3 SSW 9 17 5 9 1013.5 1013.5 0.0
26/01:00pm 23.1 23.5 16.2 65 4.2 SSW 9 13 5 7 1014.1 1014.1 0.0
26/12:30pm 23.8 24.9 16.6 64 4.4 SSW 6 9 3 5 1014.6 1014.6 0.0
26/12:00pm 22.9 23.8 16.0 65 4.2 SSE 6 11 3 6 1015.1 1015.1 0.0
26/11:30am 22.5 23.2 16.1 67 3.9 ESE 7 9 4 5 1015.5 1015.5 0.0
26/11:00am 21.5 22.7 15.8 70 3.4 SE 4 9 2 5 1015.8 1015.8 0.0
26/10:30am 21.4 22.2 15.9 71 3.3 S 6 11 3 6 1015.7 1015.7 0.0
26/10:00am 20.8 21.3 15.6 72 3.1 S 7 9 4 5 1015.6 1015.6 0.0
26/09:30am 20.3 20.3 15.1 72 3.1 SSE 9 13 5 7 1015.4 1015.4 0.0
26/09:00am 20.1 20.5 15.3 74 2.8 SE 7 11 4 6 1014.9 1014.9 0.0
26/08:30am 19.8 20.6 15.9 78 2.3 SE 6 13 3 7 1015.0 1015.0 0.0
26/08:00am 19.4 21.5 16.2 82 1.9 CALM 0 4 0 2 1014.8 1014.8 0.0
26/07:30am 19.6 21.8 16.6 83 1.8 CALM 0 6 0 3 1014.5 1014.5 0.0
26/07:00am 19.5 21.0 16.7 84 1.7 SSE 4 11 2 6 1014.1 1014.1 0.0
26/06:30am 19.6 20.8 16.8 84 1.7 SSE 6 11 3 6 1014.3 1014.3 0.0
26/06:00am 19.6 20.6 16.4 82 1.9 S 6 11 3 6 1014.1 1014.1 0.0
26/05:30am 19.6 20.8 16.8 84 1.7 SSE 6 7 3 4 1014.0 1014.0 0.0
26/05:00am 19.6 21.2 16.8 84 1.7 S 4 9 2 5 1013.7 1013.7 0.0
26/04:30am 19.7 21.2 16.7 83 1.8 SSW 4 11 2 6 1013.8 1013.8 0.0
26/04:00am 19.8 21.0 16.8 83 1.8 S 6 11 3 6 1014.0 1014.0 0.0
26/03:30am 19.8 20.4 16.8 83 1.8 SW 9 13 5 7 1014.0 1014.0 0.0
26/03:00am 19.9 20.8 16.7 82 1.9 SSW 7 15 4 8 1014.0 1014.0 0.0
26/02:30am 20.0 21.1 17.2 84 1.7 SSW 7 15 4 8 1014.5 1014.5 0.0
26/02:00am 19.9 20.4 17.5 86 1.5 SSW 11 19 6 10 1014.4 1014.4 0.0
26/01:30am 19.9 21.9 17.9 88 1.2 SSW 4 9 2 5 1014.5 1014.5 0.0
26/01:00am 19.9 21.5 17.9 88 1.2 SSW 6 11 3 6 1014.4 1014.4 0.0
26/12:30am 20.0 21.7 18.0 88 1.2 SW 6 13 3 7 1014.5 1014.5 0.0
26/12:00am 20.1 21.2 18.1 88 1.2 SW 9 19 5 10 1014.6 1014.6 0.0
 
Date/Time
EDT
Temp
°C
App
Temp
°C
Dew
Point
°C
Rel
Hum
%
Delta-T
°C
Wind Press
QNH
hPa
Press
MSL
hPa
Rain since
9am
mm
Dir  Spd
km/h
Gust
km/h
Spd
kts
Gust
kts
25/11:30pm 20.4 21.6 17.4 83 1.8 SSW 7 15 4 8 1014.3 1014.3 0.0
25/11:00pm 20.7 21.1 17.3 81 2.1 SSW 11 20 6 11 1014.4 1014.4 0.0
25/10:30pm 21.1 21.1 17.1 78 2.4 SSW 13 26 7 14 1014.2 1014.2 0.0
25/10:00pm 21.7 22.0 17.1 75 2.8 SSW 11 19 6 10 1014.0 1014.0 0.0
25/09:30pm 23.2 23.9 16.0 64 4.4 SSE 7 11 4 6 1013.4 1013.4 0.0
25/09:00pm 23.1 26.3 18.8 77 2.7 CALM 0 0 0 0 1012.7 1012.7 0.0
25/08:30pm 24.0 26.4 18.9 73 3.2 NE 4 7 2 4 1012.0 1012.0 0.0
25/08:00pm 23.8 25.9 18.9 74 3.1 N 6 9 3 5 1011.6 1011.6 0.0
25/07:30pm 24.1 26.7 18.5 71 3.5 NNE 2 7 1 4 1011.0 1011.0 0.0
25/07:00pm 24.2 26.0 18.8 72 3.4 NNW 7 13 4 7 1010.7 1010.7 0.0
25/06:30pm 26.7 28.0 17.5 57 5.8 N 7 19 4 10 1010.6 1010.6 0.0
25/06:00pm 27.2 27.4 16.8 53 6.5 NNE 11 19 6 10 1010.0 1010.0 0.0
25/05:30pm 27.7 27.8 16.6 50 6.9 NE 11 20 6 11 1009.8 1009.8 0.0
25/05:00pm 28.2 28.7 16.5 49 7.3 NNE 9 15 5 8 1009.7 1009.7 0.0
25/04:30pm 28.6 28.4 16.8 48 7.4 NE 13 20 7 11 1009.8 1009.8 0.0
25/04:00pm 28.2 28.7 16.5 49 7.3 NE 9 17 5 9 1009.8 1009.8 0.0
25/03:30pm 28.1 27.5 16.7 50 7.1 NNE 15 20 8 11 1009.9 1009.9 0.0
25/03:00pm 29.2 29.0 16.7 46 7.8 N 13 19 7 10 1010.2 1010.2 0.0
25/02:30pm 28.3 28.2 15.9 47 7.6 N 11 19 6 10 1010.4 1010.4 0.0
25/02:00pm 28.3 28.1 16.6 49 7.3 N 13 22 7 12 1010.8 1010.8 0.0
25/01:30pm 27.9 27.4 16.8 50 6.9 NNE 15 24 8 13 1011.2 1011.2 0.0
25/01:00pm 27.1 25.9 16.1 51 6.8 N 17 24 9 13 1011.6 1011.6 0.0
25/12:30pm 26.9 26.4 16.8 54 6.3 N 15 24 8 13 1012.1 1012.1 0.0
25/12:00pm 25.3 23.5 15.9 56 5.7 N 20 32 11 17 1012.5 1012.5 0.0
25/11:30am 25.3 23.7 16.4 57 5.5 N 20 30 11 16 1012.9 1012.9 0.0
25/11:00am 24.1 22.5 15.9 60 5.0 N 19 30 10 16 1013.0 1013.0 0.0
25/10:30am 22.9 20.9 15.5 63 4.4 N 20 30 11 16 1013.0 1013.0 0.0
25/10:00am 22.3 20.1 14.9 63 4.4 N 20 32 11 17 1012.9 1012.9 0.0
25/09:30am 22.1 19.5 15.0 64 4.2 N 22 33 12 18 1012.8 1012.8 0.0
25/09:00am 21.9 19.7 14.8 64 4.2 N 20 32 11 17 1012.5 1012.5 0.0
25/08:30am 21.7 20.0 14.8 65 4.1 N 17 26 9 14 1012.6 1012.6 0.0
25/08:00am 21.6 20.2 14.5 64 4.2 N 15 24 8 13 1012.3 1012.3 0.0
25/07:30am 21.0 20.9 14.9 68 3.6 N 9 13 5 7 1012.1 1012.1 0.0
25/07:00am 19.8 20.8 15.4 76 2.6 N 4 7 2 4 1012.0 1012.0 0.0
25/06:30am 19.2 19.3 15.5 79 2.2 NNE 9 13 5 7 1011.8 1011.8 0.0
25/06:00am 19.0 19.5 15.5 80 2.1 NE 7 11 4 6 1011.8 1011.8 0.0
25/05:30am 18.7 19.4 15.6 82 1.8 NNE 6 9 3 5 1012.1 1012.1 0.0
25/05:00am 18.6 18.7 15.5 82 1.8 NNE 9 13 5 7 1011.8 1011.8 0.0
25/04:30am 18.7 18.8 15.6 82 1.8 NNE 9 11 5 6 1011.9 1011.9 0.0
25/04:00am 18.7 18.2 15.8 83 1.7 NNE 13 17 7 9 1011.8 1011.8 0.0
25/03:30am 18.7 18.8 15.6 82 1.8 NNE 9 17 5 9 1012.6 1012.6 0.0
25/03:00am 19.0 19.0 15.3 79 2.2 NNE 9 13 5 7 1013.4 1013.4 0.0
25/02:30am 18.7 20.7 16.1 85 1.5 CALM 0 0 0 0 1014.2 1014.2 0.0
25/02:00am 19.0 21.0 16.0 83 1.8 CALM 0 0 0 0 1014.3 1014.3 0.0
25/01:30am 18.6 20.6 16.0 85 1.5 CALM 0 0 0 0 1014.7 1014.7 0.0
25/01:00am 19.3 21.1 15.6 79 2.2 CALM 0 0 0 0 1014.5 1014.5 0.0
25/12:30am 19.8 20.4 15.4 76 2.6 NNE 6 11 3 6 1014.2 1014.2 0.0
25/12:00am 18.6 20.6 16.0 85 1.5 CALM 0 0 0 0 1014.6 1014.6 0.0
 
Date/Time
EDT
Temp
°C
App
Temp
°C
Dew
Point
°C
Rel
Hum
%
Delta-T
°C
Wind Press
QNH
hPa
Press
MSL
hPa
Rain since
9am
mm
Dir  Spd
km/h
Gust
km/h
Spd
kts
Gust
kts
24/11:30pm 18.5 20.5 15.9 85 1.5 CALM 0 0 0 0 1015.0 1015.0 0.0
24/11:00pm 18.5 20.3 15.6 83 1.7 CALM 0 6 0 3 1015.0 1015.0 0.0
24/10:30pm 19.1 20.9 15.4 79 2.2 CALM 0 0 0 0 1015.4 1015.4 0.0
24/10:00pm 19.9 21.6 15.3 75 2.7 CALM 0 0 0 0 1015.2 1015.2 0.0
24/09:30pm 20.7 21.5 14.8 69 3.5 SE 4 9 2 5 1015.2 1015.2 0.0
24/09:00pm 20.9 22.1 14.8 68 3.6 SSW 2 7 1 4 1015.5 1015.5 0.0
24/08:30pm 21.7 22.5 14.8 65 4.1 SSE 4 9 2 5 1015.0 1015.0 0.0
24/08:00pm 22.4 22.6 14.8 62 4.5 SE 7 13 4 7 1014.7 1014.7 0.0
24/07:30pm 22.5 23.1 15.4 64 4.2 SSE 6 11 3 6 1015.0 1015.0 0.0
24/07:00pm 22.5 25.0 17.2 72 3.3 CALM 0 0 0 0 1014.8 1014.8 0.0
24/06:30pm 23.0 25.4 17.0 69 3.7 CALM 0 6 0 3 1014.8 1014.8 0.0
24/06:00pm 23.0 24.1 16.5 67 4.0 SSW 6 11 3 6 1015.2 1015.2 0.0
24/05:30pm 22.9 23.7 16.4 67 4.0 S 7 15 4 8 1014.9 1014.9 0.0
24/05:00pm 23.5 23.7 15.8 62 4.6 SSW 9 17 5 9 1014.9 1014.9 0.0
24/04:30pm 23.2 23.7 15.5 62 4.6 SSW 7 13 4 7 1015.0 1015.0 0.0
24/04:00pm 24.1 24.3 14.2 54 5.8 SSW 6 9 3 5 1015.1 1015.1 0.0
24/03:30pm 23.9 23.9 14.3 55 5.7 S 7 11 4 6 1015.5 1015.5 0.0
24/03:00pm 22.9 22.7 14.7 60 4.8 SSW 9 17 5 9 1016.2 1016.2 0.0
24/02:30pm 22.0 21.4 14.6 63 4.4 SSW 11 15 6 8 1016.8 1016.8 0.0
24/02:00pm 24.1 24.2 12.7 49 6.5 SE 4 11 2 6 1016.9 1016.9 0.0
24/01:30pm 23.3 23.9 15.4 61 4.7 WNW 6 15 3 8 1017.7 1017.7 0.0
24/01:00pm 22.6 22.3 13.4 56 5.3 NE 7 15 4 8 1018.3 1018.3 0.0
24/12:30pm 21.9 21.6 12.7 56 5.2 E 6 13 3 7 1018.7 1018.7 0.0
24/12:00pm 21.0 20.8 12.9 60 4.6 E 6 11 3 6 1019.3 1019.3 0.0
24/11:30am 20.7 21.2 13.9 65 3.9 ENE 4 9 2 5 1019.6 1019.6 0.0
24/11:00am 19.5 18.7 12.8 65 3.8 ENE 9 15 5 8 1019.8 1019.8 0.0
24/10:30am 18.5 17.8 13.1 71 3.0 NNE 9 13 5 7 1019.7 1019.7 0.0
24/10:00am 17.0 16.9 13.3 79 2.1 NNE 6 11 3 6 1020.0 1020.0 0.0
24/09:30am 16.7 15.9 13.0 79 2.1 NE 9 13 5 7 1019.9 1019.9 0.0
24/09:00am 15.3 14.8 12.8 85 1.4 NE 7 11 4 6 1019.8 1019.8 0.0
24/08:30am 14.5 14.2 12.7 89 1.0 NE 6 9 3 5 1019.7 1019.7 0.0
24/08:00am 14.2 15.1 12.9 92 0.7 CALM 0 6 0 3 1019.5 1019.5 0.0
24/07:30am 14.1 14.7 13.0 93 0.6 NE 2 9 1 5 1019.0 1019.0 0.0
24/07:00am 14.0 15.1 13.5 97 0.3 CALM 0 0 0 0 1018.7 1018.7 0.0
24/06:30am 14.0 15.1 13.5 97 0.3 CALM 0 0 0 0 1018.6 1018.6 0.0
24/06:00am 14.0 15.0 13.2 95 0.4 CALM 0 0 0 0 1018.7 1018.7 0.0
24/05:30am 14.2 15.2 13.1 93 0.6 CALM 0 0 0 0 1018.7 1018.7 0.0
24/05:00am 14.6 15.5 13.0 90 0.9 CALM 0 0 0 0 1018.7 1018.7 0.0
24/04:30am 14.9 15.8 12.8 87 1.2 CALM 0 0 0 0 1018.6 1018.6 0.0
24/04:00am 15.4 16.4 13.1 86 1.3 CALM 0 6 0 3 1018.8 1018.8 0.0
24/03:30am 15.2 16.3 13.4 89 1.0 CALM 0 6 0 3 1019.1 1019.1 0.0
24/03:00am 15.9 16.9 13.2 84 1.5 CALM 0 0 0 0 1019.7 1019.7 0.0
24/02:30am 16.6 17.1 12.9 79 2.1 E 2 7 1 4 1019.7 1019.7 0.0
24/02:00am 16.7 16.3 13.0 79 2.1 ESE 7 11 4 6 1019.7 1019.7 0.0
24/01:30am 16.8 17.0 12.9 78 2.2 ESE 4 13 2 7 1020.0 1020.0 0.0
24/01:00am 17.0 16.6 13.1 78 2.2 ESE 7 13 4 7 1019.9 1019.9 0.0
24/12:30am 17.2 16.8 13.1 77 2.3 ESE 7 15 4 8 1020.0 1020.0 0.0
24/12:00am 17.4 15.9 13.1 76 2.4 ESE 13 20 7 11 1019.8 1019.8 0.0
 
Date/Time
EDT
Temp
°C
App
Temp
°C
Dew
Point
°C
Rel
Hum
%
Delta-T
°C
Wind Press
QNH
hPa
Press
MSL
hPa
Rain since
9am
mm
Dir  Spd
km/h
Gust
km/h
Spd
kts
Gust
kts
23/11:30pm 17.7 16.2 13.2 75 2.5 ESE 13 26 7 14 1020.2 1020.2 0.0
23/11:00pm 18.0 16.6 13.5 75 2.5 SE 13 26 7 14 1020.0 1020.0 0.0
23/10:30pm 18.4 17.0 13.5 73 2.8 SE 13 24 7 13 1020.5 1020.5 0.0
23/10:00pm 18.7 17.4 13.8 73 2.8 SE 13 24 7 13 1020.3 1020.3 0.0
23/09:30pm 19.0 17.7 13.6 71 3.1 SE 13 26 7 14 1019.8 1019.8 0.0
23/09:00pm 19.4 17.7 13.6 69 3.3 SE 15 30 8 16 1019.5 1019.5 0.0
23/08:30pm 19.8 18.1 13.7 68 3.5 SE 15 32 8 17 1019.1 1019.1 0.0
23/08:00pm 20.3 19.0 13.7 66 3.8 SE 13 24 7 13 1018.5 1018.5 0.0
23/07:30pm 20.9 19.6 13.8 64 4.1 SE 13 33 7 18 1018.3 1018.3 0.0
23/07:00pm 21.7 19.3 13.9 61 4.5 SE 19 32 10 17 1018.3 1018.3 0.0
23/06:30pm 23.0 21.3 13.5 55 5.5 SE 15 32 8 17 1018.2 1018.2 0.0
23/06:00pm 23.6 21.5 13.5 53 5.9 SE 17 32 9 17 1017.9 1017.9 0.0
23/05:30pm 24.0 21.4 13.2 50 6.3 SE 19 33 10 18 1017.8 1017.8 0.0
23/05:00pm 24.2 21.9 13.1 50 6.4 SSE 17 30 9 16 1017.8 1017.8 0.0
23/04:30pm 23.6 20.9 12.9 51 6.2 SE 19 28 10 15 1018.0 1018.0 0.0

Latest Capital City Observations: Canberra | Sydney | Melbourne | Brisbane | Adelaide | Perth | Hobart | Darwin

Other Formats:

Comma delimited format used in spreadsheet applications
http://www.bom.gov.au/fwo/IDV60901/IDV60901.95936.axf

JavaScript Object Notation format (JSON) in row-major order
http://www.bom.gov.au/fwo/IDV60901/IDV60901.95936.json